sensor_id;sensor_type;location;lat;lon;timestamp;P1;durP1;ratioP1;P2;durP2;ratioP2
28455;SDS011;15682;56.742;38.866;2023-03-14T00:01:54;12.8;;;5.8;;
28455;SDS011;15682;56.742;38.866;2023-03-14T00:03:54;12.1;;;6.3;;
28455;SDS011;15682;56.742;38.866;2023-03-14T00:05:53;13.5;;;6.7;;
28455;SDS011;15682;56.742;38.866;2023-03-14T00:07:53;15.6;;;6.9;;
28455;SDS011;15682;56.742;38.866;2023-03-14T00:09:53;12.2;;;6.2;;
28455;SDS011;15682;56.742;38.866;2023-03-14T00:11:53;14.1;;;7.0;;
28455;SDS011;15682;56.742;38.866;2023-03-14T00:13:52;14.5;;;6.5;;
28455;SDS011;15682;56.742;38.866;2023-03-14T00:15:52;13.4;;;6.8;;
28455;SDS011;15682;56.742;38.866;2023-03-14T00:17:52;12.4;;;7.0;;
28455;SDS011;15682;56.742;38.866;2023-03-14T00:19:51;13.2;;;6.7;;
28455;SDS011;15682;56.742;38.866;2023-03-14T00:21:51;12.0;;;6.6;;
28455;SDS011;15682;56.742;38.866;2023-03-14T00:23:51;13.3;;;6.5;;
28455;SDS011;15682;56.742;38.866;2023-03-14T00:25:51;13.9;;;6.5;;
28455;SDS011;15682;56.742;38.866;2023-03-14T00:27:50;13.3;;;6.6;;
28455;SDS011;15682;56.742;38.866;2023-03-14T00:29:50;13.2;;;6.8;;
28455;SDS011;15682;56.742;38.866;2023-03-14T00:31:50;14.0;;;6.6;;
28455;SDS011;15682;56.742;38.866;2023-03-14T00:33:51;14.5;;;6.3;;
28455;SDS011;15682;56.742;38.866;2023-03-14T00:35:53;12.3;;;6.5;;
28455;SDS011;15682;56.742;38.866;2023-03-14T00:37:49;13.3;;;6.6;;
28455;SDS011;15682;56.742;38.866;2023-03-14T00:39:51;14.0;;;7.1;;
28455;SDS011;15682;56.742;38.866;2023-03-14T00:41:48;12.7;;;7.0;;
28455;SDS011;15682;56.742;38.866;2023-03-14T00:43:48;17.7;;;7.1;;
28455;SDS011;15682;56.742;38.866;2023-03-14T00:45:48;14.4;;;7.1;;
28455;SDS011;15682;56.742;38.866;2023-03-14T00:47:48;13.4;;;7.2;;
28455;SDS011;15682;56.742;38.866;2023-03-14T00:49:47;13.1;;;7.0;;
28455;SDS011;15682;56.742;38.866;2023-03-14T00:51:47;12.8;;;7.0;;
28455;SDS011;15682;56.742;38.866;2023-03-14T00:53:47;11.4;;;7.1;;
28455;SDS011;15682;56.742;38.866;2023-03-14T00:55:47;14.7;;;7.6;;
28455;SDS011;15682;56.742;38.866;2023-03-14T00:57:46;14.0;;;7.1;;
28455;SDS011;15682;56.742;38.866;2023-03-14T00:59:46;17.0;;;7.1;;
28455;SDS011;15682;56.742;38.866;2023-03-14T01:01:46;14.4;;;7.3;;
28455;SDS011;15682;56.742;38.866;2023-03-14T01:03:46;14.5;;;6.6;;
28455;SDS011;15682;56.742;38.866;2023-03-14T01:05:45;16.0;;;7.0;;
28455;SDS011;15682;56.742;38.866;2023-03-14T01:07:45;11.5;;;6.2;;
28455;SDS011;15682;56.742;38.866;2023-03-14T01:09:45;15.4;;;6.9;;
28455;SDS011;15682;56.742;38.866;2023-03-14T01:11:45;13.6;;;6.3;;
28455;SDS011;15682;56.742;38.866;2023-03-14T01:13:44;17.5;;;7.2;;
28455;SDS011;15682;56.742;38.866;2023-03-14T01:15:44;14.3;;;6.8;;
28455;SDS011;15682;56.742;38.866;2023-03-14T01:17:44;15.1;;;6.4;;
28455;SDS011;15682;56.742;38.866;2023-03-14T01:19:44;17.8;;;7.2;;
28455;SDS011;15682;56.742;38.866;2023-03-14T01:21:43;15.3;;;6.8;;
28455;SDS011;15682;56.742;38.866;2023-03-14T01:23:43;15.8;;;6.9;;
28455;SDS011;15682;56.742;38.866;2023-03-14T01:25:43;16.1;;;7.1;;
28455;SDS011;15682;56.742;38.866;2023-03-14T01:27:43;16.5;;;7.0;;
28455;SDS011;15682;56.742;38.866;2023-03-14T01:29:42;17.2;;;7.4;;
28455;SDS011;15682;56.742;38.866;2023-03-14T01:31:42;14.1;;;7.2;;
28455;SDS011;15682;56.742;38.866;2023-03-14T01:33:42;14.9;;;7.1;;
28455;SDS011;15682;56.742;38.866;2023-03-14T01:35:42;12.0;;;6.4;;
28455;SDS011;15682;56.742;38.866;2023-03-14T01:37:41;16.3;;;6.7;;
28455;SDS011;15682;56.742;38.866;2023-03-14T01:39:41;15.2;;;6.8;;
28455;SDS011;15682;56.742;38.866;2023-03-14T01:41:41;15.2;;;6.3;;
28455;SDS011;15682;56.742;38.866;2023-03-14T01:43:41;15.3;;;6.0;;
28455;SDS011;15682;56.742;38.866;2023-03-14T01:47:40;13.6;;;6.1;;
28455;SDS011;15682;56.742;38.866;2023-03-14T01:49:40;16.4;;;6.3;;
28455;SDS011;15682;56.742;38.866;2023-03-14T01:51:42;12.5;;;6.0;;
28455;SDS011;15682;56.742;38.866;2023-03-14T01:53:39;12.5;;;6.1;;
28455;SDS011;15682;56.742;38.866;2023-03-14T01:55:39;10.9;;;5.6;;
28455;SDS011;15682;56.742;38.866;2023-03-14T01:57:40;12.2;;;5.7;;
28455;SDS011;15682;56.742;38.866;2023-03-14T01:59:39;12.2;;;5.2;;
28455;SDS011;15682;56.742;38.866;2023-03-14T02:01:40;13.4;;;5.5;;
28455;SDS011;15682;56.742;38.866;2023-03-14T02:03:45;11.0;;;5.4;;
28455;SDS011;15682;56.742;38.866;2023-03-14T02:05:39;9.6;;;5.1;;
28455;SDS011;15682;56.742;38.866;2023-03-14T02:07:39;12.6;;;4.5;;
28455;SDS011;15682;56.742;38.866;2023-03-14T02:09:37;7.2;;;4.3;;
28455;SDS011;15682;56.742;38.866;2023-03-14T02:11:37;10.7;;;4.4;;
28455;SDS011;15682;56.742;38.866;2023-03-14T02:13:37;10.1;;;4.3;;
28455;SDS011;15682;56.742;38.866;2023-03-14T02:15:37;7.9;;;4.1;;
28455;SDS011;15682;56.742;38.866;2023-03-14T02:17:36;6.8;;;3.5;;
28455;SDS011;15682;56.742;38.866;2023-03-14T02:19:41;8.6;;;3.8;;
28455;SDS011;15682;56.742;38.866;2023-03-14T02:21:38;7.2;;;3.3;;
28455;SDS011;15682;56.742;38.866;2023-03-14T02:23:38;8.0;;;3.4;;
28455;SDS011;15682;56.742;38.866;2023-03-14T02:25:38;7.5;;;3.7;;
28455;SDS011;15682;56.742;38.866;2023-03-14T02:27:35;9.8;;;3.5;;
28455;SDS011;15682;56.742;38.866;2023-03-14T02:29:36;8.3;;;3.0;;
28455;SDS011;15682;56.742;38.866;2023-03-14T02:31:35;6.9;;;3.2;;
28455;SDS011;15682;56.742;38.866;2023-03-14T02:33:35;8.1;;;3.0;;
28455;SDS011;15682;56.742;38.866;2023-03-14T02:35:36;8.0;;;3.3;;
28455;SDS011;15682;56.742;38.866;2023-03-14T02:37:35;6.3;;;2.9;;
28455;SDS011;15682;56.742;38.866;2023-03-14T02:39:35;8.3;;;3.5;;
28455;SDS011;15682;56.742;38.866;2023-03-14T02:41:34;7.9;;;3.3;;
28455;SDS011;15682;56.742;38.866;2023-03-14T02:43:34;4.9;;;2.8;;
28455;SDS011;15682;56.742;38.866;2023-03-14T02:45:42;8.5;;;3.2;;
28455;SDS011;15682;56.742;38.866;2023-03-14T02:47:34;9.0;;;3.2;;
28455;SDS011;15682;56.742;38.866;2023-03-14T02:49:33;10.3;;;3.3;;
28455;SDS011;15682;56.742;38.866;2023-03-14T02:51:33;6.9;;;3.1;;
28455;SDS011;15682;56.742;38.866;2023-03-14T02:53:33;7.4;;;3.1;;
28455;SDS011;15682;56.742;38.866;2023-03-14T02:55:32;7.4;;;3.1;;
28455;SDS011;15682;56.742;38.866;2023-03-14T02:57:32;8.4;;;3.4;;
28455;SDS011;15682;56.742;38.866;2023-03-14T02:59:32;9.7;;;3.4;;
28455;SDS011;15682;56.742;38.866;2023-03-14T03:01:32;9.1;;;3.5;;
28455;SDS011;15682;56.742;38.866;2023-03-14T03:03:31;7.4;;;3.2;;
28455;SDS011;15682;56.742;38.866;2023-03-14T03:05:31;6.6;;;3.3;;
28455;SDS011;15682;56.742;38.866;2023-03-14T03:07:31;8.4;;;3.3;;
28455;SDS011;15682;56.742;38.866;2023-03-14T03:09:31;6.6;;;3.4;;
28455;SDS011;15682;56.742;38.866;2023-03-14T03:11:30;7.0;;;3.2;;
28455;SDS011;15682;56.742;38.866;2023-03-14T03:13:30;11.7;;;3.9;;
28455;SDS011;15682;56.742;38.866;2023-03-14T03:15:30;7.6;;;3.6;;
28455;SDS011;15682;56.742;38.866;2023-03-14T03:17:30;8.2;;;3.9;;
28455;SDS011;15682;56.742;38.866;2023-03-14T03:19:30;8.8;;;4.0;;
28455;SDS011;15682;56.742;38.866;2023-03-14T03:21:29;8.2;;;3.7;;
28455;SDS011;15682;56.742;38.866;2023-03-14T03:23:29;6.7;;;4.0;;
28455;SDS011;15682;56.742;38.866;2023-03-14T03:25:29;10.6;;;4.4;;
28455;SDS011;15682;56.742;38.866;2023-03-14T03:27:29;8.8;;;3.9;;
28455;SDS011;15682;56.742;38.866;2023-03-14T03:29:29;10.7;;;4.2;;
28455;SDS011;15682;56.742;38.866;2023-03-14T03:31:28;10.3;;;4.5;;
28455;SDS011;15682;56.742;38.866;2023-03-14T03:33:28;9.1;;;4.5;;
28455;SDS011;15682;56.742;38.866;2023-03-14T03:35:28;9.2;;;4.7;;
28455;SDS011;15682;56.742;38.866;2023-03-14T03:37:28;10.4;;;5.0;;
28455;SDS011;15682;56.742;38.866;2023-03-14T03:39:27;9.4;;;4.8;;
28455;SDS011;15682;56.742;38.866;2023-03-14T03:41:27;10.5;;;5.1;;
28455;SDS011;15682;56.742;38.866;2023-03-14T03:43:27;11.8;;;5.0;;
28455;SDS011;15682;56.742;38.866;2023-03-14T03:45:27;10.7;;;5.5;;
28455;SDS011;15682;56.742;38.866;2023-03-14T03:47:27;14.8;;;5.3;;
28455;SDS011;15682;56.742;38.866;2023-03-14T03:49:28;12.0;;;6.0;;
28455;SDS011;15682;56.742;38.866;2023-03-14T03:51:26;10.6;;;4.9;;
28455;SDS011;15682;56.742;38.866;2023-03-14T03:53:26;9.8;;;5.6;;
28455;SDS011;15682;56.742;38.866;2023-03-14T03:55:26;12.1;;;5.5;;
28455;SDS011;15682;56.742;38.866;2023-03-14T03:57:26;13.0;;;5.5;;
28455;SDS011;15682;56.742;38.866;2023-03-14T03:59:26;11.8;;;5.3;;
28455;SDS011;15682;56.742;38.866;2023-03-14T04:01:25;13.2;;;5.7;;
28455;SDS011;15682;56.742;38.866;2023-03-14T04:03:25;11.0;;;5.1;;
28455;SDS011;15682;56.742;38.866;2023-03-14T04:05:25;9.5;;;5.0;;
28455;SDS011;15682;56.742;38.866;2023-03-14T04:07:25;11.1;;;5.7;;
28455;SDS011;15682;56.742;38.866;2023-03-14T04:09:25;12.3;;;5.1;;
28455;SDS011;15682;56.742;38.866;2023-03-14T04:11:24;11.0;;;5.5;;
28455;SDS011;15682;56.742;38.866;2023-03-14T04:13:24;10.3;;;5.6;;
28455;SDS011;15682;56.742;38.866;2023-03-14T04:15:24;14.5;;;5.6;;
28455;SDS011;15682;56.742;38.866;2023-03-14T04:17:24;12.8;;;5.9;;
28455;SDS011;15682;56.742;38.866;2023-03-14T04:19:24;13.4;;;6.0;;
28455;SDS011;15682;56.742;38.866;2023-03-14T04:21:23;12.9;;;5.9;;
28455;SDS011;15682;56.742;38.866;2023-03-14T04:23:24;14.4;;;6.1;;
28455;SDS011;15682;56.742;38.866;2023-03-14T04:25:23;14.9;;;6.8;;
28455;SDS011;15682;56.742;38.866;2023-03-14T04:27:23;13.0;;;6.3;;
28455;SDS011;15682;56.742;38.866;2023-03-14T04:29:23;12.8;;;6.7;;
28455;SDS011;15682;56.742;38.866;2023-03-14T04:31:22;13.5;;;6.4;;
28455;SDS011;15682;56.742;38.866;2023-03-14T04:33:22;12.4;;;6.4;;
28455;SDS011;15682;56.742;38.866;2023-03-14T04:35:22;13.1;;;6.9;;
28455;SDS011;15682;56.742;38.866;2023-03-14T04:37:22;13.8;;;7.0;;
28455;SDS011;15682;56.742;38.866;2023-03-14T04:39:22;15.2;;;7.3;;
28455;SDS011;15682;56.742;38.866;2023-03-14T04:41:22;13.2;;;6.7;;
28455;SDS011;15682;56.742;38.866;2023-03-14T04:43:21;12.5;;;6.8;;
28455;SDS011;15682;56.742;38.866;2023-03-14T04:45:21;14.2;;;7.1;;
28455;SDS011;15682;56.742;38.866;2023-03-14T04:47:21;12.8;;;6.9;;
28455;SDS011;15682;56.742;38.866;2023-03-14T04:49:21;12.5;;;7.0;;
28455;SDS011;15682;56.742;38.866;2023-03-14T04:51:21;13.6;;;7.3;;
28455;SDS011;15682;56.742;38.866;2023-03-14T04:53:21;14.3;;;7.4;;
28455;SDS011;15682;56.742;38.866;2023-03-14T04:55:20;17.1;;;7.7;;
28455;SDS011;15682;56.742;38.866;2023-03-14T04:57:20;14.2;;;8.0;;
28455;SDS011;15682;56.742;38.866;2023-03-14T04:59:20;17.0;;;8.2;;
28455;SDS011;15682;56.742;38.866;2023-03-14T05:01:20;16.1;;;7.8;;
28455;SDS011;15682;56.742;38.866;2023-03-14T05:03:20;13.0;;;7.8;;
28455;SDS011;15682;56.742;38.866;2023-03-14T05:05:20;17.5;;;7.7;;
28455;SDS011;15682;56.742;38.866;2023-03-14T05:07:19;13.5;;;7.4;;
28455;SDS011;15682;56.742;38.866;2023-03-14T05:09:19;14.2;;;7.9;;
28455;SDS011;15682;56.742;38.866;2023-03-14T05:11:19;14.7;;;7.1;;
28455;SDS011;15682;56.742;38.866;2023-03-14T05:13:19;12.6;;;7.7;;
28455;SDS011;15682;56.742;38.866;2023-03-14T05:15:19;18.5;;;7.7;;
28455;SDS011;15682;56.742;38.866;2023-03-14T05:17:19;14.4;;;7.4;;
28455;SDS011;15682;56.742;38.866;2023-03-14T05:19:18;16.4;;;7.2;;
28455;SDS011;15682;56.742;38.866;2023-03-14T05:21:18;13.1;;;7.1;;
28455;SDS011;15682;56.742;38.866;2023-03-14T05:23:18;14.9;;;7.6;;
28455;SDS011;15682;56.742;38.866;2023-03-14T05:25:18;12.8;;;7.2;;
28455;SDS011;15682;56.742;38.866;2023-03-14T05:27:18;13.1;;;6.8;;
28455;SDS011;15682;56.742;38.866;2023-03-14T05:29:18;13.2;;;7.3;;
28455;SDS011;15682;56.742;38.866;2023-03-14T05:31:17;12.0;;;6.9;;
28455;SDS011;15682;56.742;38.866;2023-03-14T05:33:17;11.3;;;7.0;;
28455;SDS011;15682;56.742;38.866;2023-03-14T05:35:17;11.8;;;6.7;;
28455;SDS011;15682;56.742;38.866;2023-03-14T05:37:17;10.9;;;6.5;;
28455;SDS011;15682;56.742;38.866;2023-03-14T05:39:17;11.1;;;6.7;;
28455;SDS011;15682;56.742;38.866;2023-03-14T05:41:17;11.7;;;6.8;;
28455;SDS011;15682;56.742;38.866;2023-03-14T05:43:16;10.2;;;6.5;;
28455;SDS011;15682;56.742;38.866;2023-03-14T05:45:16;13.5;;;6.6;;
28455;SDS011;15682;56.742;38.866;2023-03-14T05:47:16;9.8;;;6.4;;
28455;SDS011;15682;56.742;38.866;2023-03-14T05:49:16;10.2;;;6.0;;
28455;SDS011;15682;56.742;38.866;2023-03-14T05:51:16;10.7;;;6.2;;
28455;SDS011;15682;56.742;38.866;2023-03-14T05:53:16;10.4;;;6.3;;
28455;SDS011;15682;56.742;38.866;2023-03-14T05:55:16;13.5;;;7.8;;
28455;SDS011;15682;56.742;38.866;2023-03-14T05:57:15;9.8;;;6.4;;
28455;SDS011;15682;56.742;38.866;2023-03-14T05:59:15;9.7;;;6.2;;
28455;SDS011;15682;56.742;38.866;2023-03-14T06:01:15;11.5;;;6.5;;
28455;SDS011;15682;56.742;38.866;2023-03-14T06:03:15;10.1;;;5.8;;
28455;SDS011;15682;56.742;38.866;2023-03-14T06:05:15;12.0;;;5.5;;
28455;SDS011;15682;56.742;38.866;2023-03-14T06:07:15;8.5;;;5.3;;
28455;SDS011;15682;56.742;38.866;2023-03-14T06:09:15;9.7;;;5.7;;
28455;SDS011;15682;56.742;38.866;2023-03-14T06:11:14;9.4;;;5.6;;
28455;SDS011;15682;56.742;38.866;2023-03-14T06:13:14;10.5;;;6.0;;
28455;SDS011;15682;56.742;38.866;2023-03-14T06:15:14;8.9;;;5.9;;
28455;SDS011;15682;56.742;38.866;2023-03-14T06:17:14;10.3;;;6.0;;
28455;SDS011;15682;56.742;38.866;2023-03-14T06:19:14;10.6;;;5.6;;
28455;SDS011;15682;56.742;38.866;2023-03-14T06:21:14;9.2;;;6.2;;
28455;SDS011;15682;56.742;38.866;2023-03-14T06:23:14;9.8;;;6.1;;
28455;SDS011;15682;56.742;38.866;2023-03-14T06:25:14;9.7;;;6.2;;
28455;SDS011;15682;56.742;38.866;2023-03-14T06:27:13;12.3;;;6.5;;
28455;SDS011;15682;56.742;38.866;2023-03-14T06:29:13;12.9;;;6.2;;
28455;SDS011;15682;56.742;38.866;2023-03-14T06:31:13;11.3;;;6.2;;
28455;SDS011;15682;56.742;38.866;2023-03-14T06:33:13;10.2;;;6.3;;
28455;SDS011;15682;56.742;38.866;2023-03-14T06:35:13;14.6;;;9.2;;
28455;SDS011;15682;56.742;38.866;2023-03-14T06:37:13;10.2;;;6.0;;
28455;SDS011;15682;56.742;38.866;2023-03-14T06:39:13;11.6;;;5.9;;
28455;SDS011;15682;56.742;38.866;2023-03-14T06:41:13;11.0;;;5.9;;
28455;SDS011;15682;56.742;38.866;2023-03-14T06:43:12;9.4;;;5.5;;
28455;SDS011;15682;56.742;38.866;2023-03-14T06:45:12;10.1;;;6.0;;
28455;SDS011;15682;56.742;38.866;2023-03-14T06:47:12;8.0;;;5.0;;
28455;SDS011;15682;56.742;38.866;2023-03-14T06:49:12;7.5;;;5.0;;
28455;SDS011;15682;56.742;38.866;2023-03-14T06:51:12;8.8;;;5.7;;
28455;SDS011;15682;56.742;38.866;2023-03-14T06:53:12;8.4;;;5.4;;
28455;SDS011;15682;56.742;38.866;2023-03-14T06:55:12;8.0;;;5.0;;
28455;SDS011;15682;56.742;38.866;2023-03-14T06:57:12;10.9;;;5.0;;
28455;SDS011;15682;56.742;38.866;2023-03-14T06:59:11;8.4;;;5.2;;
28455;SDS011;15682;56.742;38.866;2023-03-14T07:01:15;6.9;;;4.7;;
28455;SDS011;15682;56.742;38.866;2023-03-14T07:03:11;8.8;;;5.0;;
28455;SDS011;15682;56.742;38.866;2023-03-14T07:05:11;7.7;;;5.0;;
28455;SDS011;15682;56.742;38.866;2023-03-14T07:07:11;7.0;;;4.9;;
28455;SDS011;15682;56.742;38.866;2023-03-14T07:09:11;8.6;;;5.0;;
28455;SDS011;15682;56.742;38.866;2023-03-14T07:11:11;13.1;;;5.4;;
28455;SDS011;15682;56.742;38.866;2023-03-14T07:13:10;7.4;;;4.6;;
28455;SDS011;15682;56.742;38.866;2023-03-14T07:15:10;7.4;;;5.0;;
28455;SDS011;15682;56.742;38.866;2023-03-14T07:17:10;8.8;;;5.5;;
28455;SDS011;15682;56.742;38.866;2023-03-14T07:19:10;9.9;;;5.1;;
28455;SDS011;15682;56.742;38.866;2023-03-14T07:21:10;6.8;;;4.9;;
28455;SDS011;15682;56.742;38.866;2023-03-14T07:23:10;9.9;;;5.3;;
28455;SDS011;15682;56.742;38.866;2023-03-14T07:25:10;11.0;;;5.4;;
28455;SDS011;15682;56.742;38.866;2023-03-14T07:27:10;11.7;;;5.8;;
28455;SDS011;15682;56.742;38.866;2023-03-14T07:29:09;10.6;;;5.5;;
28455;SDS011;15682;56.742;38.866;2023-03-14T07:31:09;9.2;;;5.2;;
28455;SDS011;15682;56.742;38.866;2023-03-14T07:33:09;8.6;;;5.1;;
28455;SDS011;15682;56.742;38.866;2023-03-14T07:35:09;9.1;;;5.1;;
28455;SDS011;15682;56.742;38.866;2023-03-14T07:37:09;11.4;;;5.5;;
28455;SDS011;15682;56.742;38.866;2023-03-14T07:39:09;8.9;;;5.0;;
28455;SDS011;15682;56.742;38.866;2023-03-14T07:41:09;11.4;;;5.3;;
28455;SDS011;15682;56.742;38.866;2023-03-14T07:43:09;10.2;;;5.2;;
28455;SDS011;15682;56.742;38.866;2023-03-14T07:45:09;9.1;;;4.9;;
28455;SDS011;15682;56.742;38.866;2023-03-14T07:47:08;9.8;;;5.1;;
28455;SDS011;15682;56.742;38.866;2023-03-14T07:49:08;10.5;;;5.1;;
28455;SDS011;15682;56.742;38.866;2023-03-14T07:51:08;7.8;;;4.7;;
28455;SDS011;15682;56.742;38.866;2023-03-14T07:53:09;7.2;;;4.8;;
28455;SDS011;15682;56.742;38.866;2023-03-14T07:55:08;11.7;;;5.5;;
28455;SDS011;15682;56.742;38.866;2023-03-14T07:57:08;10.5;;;5.0;;
28455;SDS011;15682;56.742;38.866;2023-03-14T07:59:08;11.3;;;4.8;;
28455;SDS011;15682;56.742;38.866;2023-03-14T08:01:08;9.9;;;4.6;;
28455;SDS011;15682;56.742;38.866;2023-03-14T08:03:08;11.2;;;4.9;;
28455;SDS011;15682;56.742;38.866;2023-03-14T08:05:08;8.8;;;4.7;;
28455;SDS011;15682;56.742;38.866;2023-03-14T08:07:07;8.0;;;3.9;;
28455;SDS011;15682;56.742;38.866;2023-03-14T08:09:07;11.7;;;4.5;;
28455;SDS011;15682;56.742;38.866;2023-03-14T08:11:07;8.6;;;4.5;;
28455;SDS011;15682;56.742;38.866;2023-03-14T08:13:08;9.3;;;4.5;;
28455;SDS011;15682;56.742;38.866;2023-03-14T08:15:07;8.2;;;4.2;;
28455;SDS011;15682;56.742;38.866;2023-03-14T08:17:07;11.7;;;4.7;;
28455;SDS011;15682;56.742;38.866;2023-03-14T08:19:07;8.1;;;4.6;;
28455;SDS011;15682;56.742;38.866;2023-03-14T08:21:07;8.8;;;4.0;;
28455;SDS011;15682;56.742;38.866;2023-03-14T08:23:07;9.8;;;4.5;;
28455;SDS011;15682;56.742;38.866;2023-03-14T08:25:07;9.5;;;4.4;;
28455;SDS011;15682;56.742;38.866;2023-03-14T08:27:06;8.0;;;4.3;;
28455;SDS011;15682;56.742;38.866;2023-03-14T08:29:06;11.8;;;4.2;;
28455;SDS011;15682;56.742;38.866;2023-03-14T08:31:06;11.4;;;4.5;;
28455;SDS011;15682;56.742;38.866;2023-03-14T08:33:06;10.8;;;4.8;;
28455;SDS011;15682;56.742;38.866;2023-03-14T08:35:07;11.9;;;4.8;;
28455;SDS011;15682;56.742;38.866;2023-03-14T08:37:06;14.2;;;5.0;;
28455;SDS011;15682;56.742;38.866;2023-03-14T08:39:06;11.4;;;5.0;;
28455;SDS011;15682;56.742;38.866;2023-03-14T08:41:06;10.8;;;4.6;;
28455;SDS011;15682;56.742;38.866;2023-03-14T08:43:06;10.3;;;4.4;;
28455;SDS011;15682;56.742;38.866;2023-03-14T08:45:06;9.6;;;4.3;;
28455;SDS011;15682;56.742;38.866;2023-03-14T08:47:05;9.3;;;4.5;;
28455;SDS011;15682;56.742;38.866;2023-03-14T08:49:05;12.1;;;4.9;;
28455;SDS011;15682;56.742;38.866;2023-03-14T08:51:06;12.0;;;4.7;;
28455;SDS011;15682;56.742;38.866;2023-03-14T08:53:05;11.1;;;4.7;;
28455;SDS011;15682;56.742;38.866;2023-03-14T08:55:06;8.7;;;4.2;;
28455;SDS011;15682;56.742;38.866;2023-03-14T08:57:05;8.4;;;4.1;;
28455;SDS011;15682;56.742;38.866;2023-03-14T08:59:05;9.3;;;4.5;;
28455;SDS011;15682;56.742;38.866;2023-03-14T09:01:05;11.1;;;4.5;;
28455;SDS011;15682;56.742;38.866;2023-03-14T09:03:05;9.7;;;4.2;;
28455;SDS011;15682;56.742;38.866;2023-03-14T09:05:05;11.4;;;4.3;;
28455;SDS011;15682;56.742;38.866;2023-03-14T09:07:05;10.2;;;4.2;;
28455;SDS011;15682;56.742;38.866;2023-03-14T09:09:05;9.9;;;4.1;;
28455;SDS011;15682;56.742;38.866;2023-03-14T09:11:06;23.4;;;11.6;;
28455;SDS011;15682;56.742;38.866;2023-03-14T09:13:04;18.0;;;8.5;;
28455;SDS011;15682;56.742;38.866;2023-03-14T09:15:05;9.6;;;5.2;;
28455;SDS011;15682;56.742;38.866;2023-03-14T09:17:04;13.1;;;5.3;;
28455;SDS011;15682;56.742;38.866;2023-03-14T09:19:04;14.3;;;6.5;;
28455;SDS011;15682;56.742;38.866;2023-03-14T09:21:04;11.1;;;4.3;;
28455;SDS011;15682;56.742;38.866;2023-03-14T09:23:04;12.0;;;4.8;;
28455;SDS011;15682;56.742;38.866;2023-03-14T09:25:04;9.0;;;4.4;;
28455;SDS011;15682;56.742;38.866;2023-03-14T09:27:04;10.2;;;5.0;;
28455;SDS011;15682;56.742;38.866;2023-03-14T09:29:04;10.3;;;4.5;;
28455;SDS011;15682;56.742;38.866;2023-03-14T09:31:05;9.3;;;4.6;;
28455;SDS011;15682;56.742;38.866;2023-03-14T09:33:04;8.1;;;4.4;;
28455;SDS011;15682;56.742;38.866;2023-03-14T09:35:04;9.0;;;4.8;;
28455;SDS011;15682;56.742;38.866;2023-03-14T09:37:04;9.9;;;4.3;;
28455;SDS011;15682;56.742;38.866;2023-03-14T09:39:04;10.6;;;4.7;;
28455;SDS011;15682;56.742;38.866;2023-03-14T09:41:10;11.7;;;4.7;;
28455;SDS011;15682;56.742;38.866;2023-03-14T09:43:04;12.5;;;5.4;;
28455;SDS011;15682;56.742;38.866;2023-03-14T09:45:04;24.0;;;11.9;;
28455;SDS011;15682;56.742;38.866;2023-03-14T09:47:04;20.3;;;5.6;;
28455;SDS011;15682;56.742;38.866;2023-03-14T09:49:05;7.0;;;4.5;;
28455;SDS011;15682;56.742;38.866;2023-03-14T09:51:04;11.4;;;4.5;;
28455;SDS011;15682;56.742;38.866;2023-03-14T09:53:05;12.1;;;5.1;;
28455;SDS011;15682;56.742;38.866;2023-03-14T09:55:05;10.0;;;4.2;;
28455;SDS011;15682;56.742;38.866;2023-03-14T09:57:04;11.9;;;4.6;;
28455;SDS011;15682;56.742;38.866;2023-03-14T09:59:03;9.9;;;4.3;;
28455;SDS011;15682;56.742;38.866;2023-03-14T10:01:03;15.1;;;4.6;;
28455;SDS011;15682;56.742;38.866;2023-03-14T10:03:23;12.8;;;4.9;;
28455;SDS011;15682;56.742;38.866;2023-03-14T10:05:05;9.5;;;4.4;;
28455;SDS011;15682;56.742;38.866;2023-03-14T10:07:03;13.9;;;4.5;;
28455;SDS011;15682;56.742;38.866;2023-03-14T10:09:03;11.8;;;4.4;;
28455;SDS011;15682;56.742;38.866;2023-03-14T10:11:03;9.0;;;4.5;;
28455;SDS011;15682;56.742;38.866;2023-03-14T10:13:10;11.1;;;4.6;;
28455;SDS011;15682;56.742;38.866;2023-03-14T10:15:04;7.4;;;4.3;;
28455;SDS011;15682;56.742;38.866;2023-03-14T10:17:05;10.3;;;4.4;;
28455;SDS011;15682;56.742;38.866;2023-03-14T10:19:04;12.0;;;4.3;;
28455;SDS011;15682;56.742;38.866;2023-03-14T10:21:05;10.2;;;4.2;;
28455;SDS011;15682;56.742;38.866;2023-03-14T10:23:03;9.6;;;4.4;;
28455;SDS011;15682;56.742;38.866;2023-03-14T10:25:04;9.7;;;4.4;;
28455;SDS011;15682;56.742;38.866;2023-03-14T10:27:04;8.2;;;4.7;;
28455;SDS011;15682;56.742;38.866;2023-03-14T10:29:03;11.3;;;4.7;;
28455;SDS011;15682;56.742;38.866;2023-03-14T10:31:03;10.6;;;4.4;;
28455;SDS011;15682;56.742;38.866;2023-03-14T10:33:08;11.1;;;4.2;;
28455;SDS011;15682;56.742;38.866;2023-03-14T10:35:05;10.2;;;4.7;;
28455;SDS011;15682;56.742;38.866;2023-03-14T10:37:05;10.9;;;5.1;;
28455;SDS011;15682;56.742;38.866;2023-03-14T10:39:15;11.3;;;4.5;;
28455;SDS011;15682;56.742;38.866;2023-03-14T10:41:12;8.6;;;4.2;;
28455;SDS011;15682;56.742;38.866;2023-03-14T10:43:03;11.6;;;4.5;;
28455;SDS011;15682;56.742;38.866;2023-03-14T10:45:04;9.9;;;4.5;;
28455;SDS011;15682;56.742;38.866;2023-03-14T10:47:03;10.8;;;4.1;;
28455;SDS011;15682;56.742;38.866;2023-03-14T10:49:04;10.9;;;4.4;;
28455;SDS011;15682;56.742;38.866;2023-03-14T10:51:04;10.2;;;4.3;;
28455;SDS011;15682;56.742;38.866;2023-03-14T10:53:03;10.3;;;4.5;;
28455;SDS011;15682;56.742;38.866;2023-03-14T10:55:04;10.8;;;4.3;;
28455;SDS011;15682;56.742;38.866;2023-03-14T10:57:03;9.1;;;4.3;;
28455;SDS011;15682;56.742;38.866;2023-03-14T10:59:03;10.2;;;4.8;;
28455;SDS011;15682;56.742;38.866;2023-03-14T11:01:06;13.6;;;4.6;;
28455;SDS011;15682;56.742;38.866;2023-03-14T11:03:04;9.4;;;4.0;;
28455;SDS011;15682;56.742;38.866;2023-03-14T11:05:06;8.3;;;4.2;;
28455;SDS011;15682;56.742;38.866;2023-03-14T11:07:04;11.6;;;4.6;;
28455;SDS011;15682;56.742;38.866;2023-03-14T11:09:05;10.9;;;4.5;;
28455;SDS011;15682;56.742;38.866;2023-03-14T11:11:07;12.5;;;4.7;;
28455;SDS011;15682;56.742;38.866;2023-03-14T11:13:06;10.1;;;4.3;;
28455;SDS011;15682;56.742;38.866;2023-03-14T11:15:04;9.4;;;4.3;;
28455;SDS011;15682;56.742;38.866;2023-03-14T11:17:05;8.8;;;4.5;;
28455;SDS011;15682;56.742;38.866;2023-03-14T11:19:08;8.5;;;4.3;;
28455;SDS011;15682;56.742;38.866;2023-03-14T11:21:04;9.7;;;4.1;;
28455;SDS011;15682;56.742;38.866;2023-03-14T11:23:04;9.2;;;4.2;;
28455;SDS011;15682;56.742;38.866;2023-03-14T11:25:12;12.2;;;4.9;;
28455;SDS011;15682;56.742;38.866;2023-03-14T11:27:04;9.3;;;4.5;;
28455;SDS011;15682;56.742;38.866;2023-03-14T11:29:08;10.3;;;4.5;;
28455;SDS011;15682;56.742;38.866;2023-03-14T11:31:04;10.9;;;4.3;;
28455;SDS011;15682;56.742;38.866;2023-03-14T11:33:03;8.3;;;4.5;;
28455;SDS011;15682;56.742;38.866;2023-03-14T11:35:03;11.7;;;4.7;;
28455;SDS011;15682;56.742;38.866;2023-03-14T11:37:04;10.0;;;4.5;;
28455;SDS011;15682;56.742;38.866;2023-03-14T11:39:02;7.7;;;4.0;;
28455;SDS011;15682;56.742;38.866;2023-03-14T11:41:02;10.3;;;4.2;;
28455;SDS011;15682;56.742;38.866;2023-03-14T11:43:05;10.3;;;4.4;;
28455;SDS011;15682;56.742;38.866;2023-03-14T11:45:03;10.0;;;4.7;;
28455;SDS011;15682;56.742;38.866;2023-03-14T11:47:04;7.7;;;4.2;;
28455;SDS011;15682;56.742;38.866;2023-03-14T11:49:03;12.6;;;5.5;;
28455;SDS011;15682;56.742;38.866;2023-03-14T11:51:05;12.1;;;4.8;;
28455;SDS011;15682;56.742;38.866;2023-03-14T11:53:03;9.8;;;4.6;;
28455;SDS011;15682;56.742;38.866;2023-03-14T11:55:04;12.9;;;5.0;;
28455;SDS011;15682;56.742;38.866;2023-03-14T11:57:03;12.2;;;4.7;;
28455;SDS011;15682;56.742;38.866;2023-03-14T11:59:04;9.0;;;4.7;;
28455;SDS011;15682;56.742;38.866;2023-03-14T12:01:03;9.8;;;4.7;;
28455;SDS011;15682;56.742;38.866;2023-03-14T12:03:04;12.2;;;5.2;;
28455;SDS011;15682;56.742;38.866;2023-03-14T12:05:19;9.0;;;4.7;;
28455;SDS011;15682;56.742;38.866;2023-03-14T12:07:03;10.6;;;5.1;;
28455;SDS011;15682;56.742;38.866;2023-03-14T12:09:02;13.0;;;5.0;;